Time;durP1;ratioP1;P1;durP2;ratioP2;P2;SDS_P1;SDS_P2;PMS_P1;PMS_P2;Temp;Humidity;BMP_temperature;BMP_pressure;BME280_temperature;BME280_humidity;BME280_pressure;Samples;Min_cycle;Max_cycle;Signal;HPM_P1;HPM_P2
2022/12/21 00:00:50;;;;;;;31.67;14.57;;;;;;;0.19;52.48;95915.00;5109363;28;20035;-77
2022/12/21 00:03:15;;;;;;;28.67;15.38;;;;;;;0.16;52.31;95910.28;5108716;28;20036;-75
2022/12/21 00:05:41;;;;;;;24.67;14.13;;;;;;;0.20;52.25;95911.94;5108288;28;20047;-75
2022/12/21 00:08:06;;;;;;;22.98;13.60;;;;;;;0.21;52.15;95910.03;5107509;28;20027;-76
2022/12/21 00:10:32;;;;;;;23.17;13.68;;;;;;;0.16;52.41;95905.66;5091078;28;20027;-75
2022/12/21 00:12:57;;;;;;;26.90;13.35;;;;;;;0.19;52.27;95906.88;5107272;28;20057;-75
2022/12/21 00:15:23;;;;;;;28.58;14.52;;;;;;;0.13;52.08;95905.56;5107997;28;20555;-76
2022/12/21 00:17:48;;;;;;;30.33;14.00;;;;;;;0.13;52.35;95902.88;5107530;28;20023;-76
2022/12/21 00:20:14;;;;;;;27.38;14.40;;;;;;;0.15;52.25;95898.66;5107620;28;20027;-77
2022/12/21 00:22:39;;;;;;;27.88;14.48;;;;;;;0.15;52.43;95892.47;5110311;28;20494;-76
2022/12/21 00:25:05;;;;;;;25.95;14.55;;;;;;;0.11;52.34;95895.06;5108678;28;20023;-75
2022/12/21 00:27:30;;;;;;;28.90;14.45;;;;;;;0.15;52.18;95897.88;5109501;28;20059;-77
2022/12/21 00:29:56;;;;;;;26.80;14.35;;;;;;;0.15;52.41;95895.97;5109685;28;20012;-76
2022/12/21 00:32:21;;;;;;;23.67;14.52;;;;;;;0.10;52.18;95888.09;5109018;28;20546;-76
2022/12/21 00:34:47;;;;;;;25.27;14.73;;;;;;;0.11;52.22;95895.06;5106835;28;20550;-75
2022/12/21 00:37:12;;;;;;;25.45;15.18;;;;;;;0.08;52.44;95898.50;5107319;28;20375;-75
2022/12/21 00:39:37;;;;;;;24.02;13.70;;;;;;;0.08;52.21;95884.97;5108881;28;20020;-76
2022/12/21 00:42:03;;;;;;;24.23;12.90;;;;;;;0.09;52.60;95891.94;5089773;28;20042;-75
2022/12/21 00:44:28;;;;;;;23.35;13.60;;;;;;;0.09;52.28;95891.94;5107685;28;20028;-75
2022/12/21 00:46:54;;;;;;;24.23;13.60;;;;;;;0.02;52.16;95894.47;5089642;28;20092;-76
2022/12/21 00:49:19;;;;;;;29.25;14.18;;;;;;;-0.01;52.32;95882.41;5109059;28;20035;-76
2022/12/21 00:51:45;;;;;;;22.88;13.63;;;;;;;-0.06;52.40;95884.56;5106840;28;20020;-74
2022/12/21 00:54:10;;;;;;;29.15;13.75;;;;;;;-0.04;52.33;95877.72;5107284;28;20445;-76
2022/12/21 00:56:36;;;;;;;23.30;13.90;;;;;;;-0.02;52.50;95870.03;5108778;28;20032;-75
2022/12/21 00:59:01;;;;;;;32.05;14.43;;;;;;;-0.05;52.29;95862.63;5103367;28;20058;-75
2022/12/21 01:01:31;;;;;;;26.63;13.25;;;;;;;-0.05;52.39;95856.44;5087767;28;20474;-76
2022/12/21 01:03:57;;;;;;;28.10;15.38;;;;;;;-0.09;52.37;95855.53;5106908;28;20036;-76
2022/12/21 01:06:24;;;;;;;29.17;14.43;;;;;;;-0.05;52.31;95861.84;5090351;28;20108;-75
2022/12/21 01:08:50;;;;;;;25.80;14.20;;;;;;;-0.03;52.48;95865.75;5089312;28;20547;-75
2022/12/21 01:11:16;;;;;;;24.23;13.70;;;;;;;-0.09;52.32;95864.44;5107123;28;20081;-76
2022/12/21 01:13:41;;;;;;;26.27;14.43;;;;;;;-0.08;52.25;95862.53;5088446;28;20019;-75
2022/12/21 01:16:12;;;;;;;25.70;14.30;;;;;;;-0.10;52.52;95860.16;5108583;28;20023;-76
2022/12/21 01:18:37;;;;;;;30.80;15.43;;;;;;;-0.12;52.33;95864.34;5090497;28;20028;-75
2022/12/21 01:21:03;;;;;;;24.30;13.60;;;;;;;-0.12;52.48;95858.94;5089036;28;20032;-76
2022/12/21 01:23:28;;;;;;;23.25;12.50;;;;;;;-0.15;52.42;95857.72;5089897;28;20024;-76
2022/12/21 01:25:54;;;;;;;29.95;14.02;;;;;;;-0.17;52.65;95867.28;5088997;28;20440;-77
2022/12/21 01:28:19;;;;;;;26.27;13.68;;;;;;;-0.20;52.77;95851.78;5107025;28;20677;-76
2022/12/21 01:30:45;;;;;;;19.63;12.45;;;;;;;-0.21;52.34;95858.31;5106071;28;20501;-75
2022/12/21 01:33:17;;;;;;;24.88;13.45;;;;;;;-0.23;52.24;95847.03;5106729;28;20035;-75
2022/12/21 01:35:43;;;;;;;26.10;13.38;;;;;;;-0.23;52.47;95847.03;5089617;28;20058;-76
2022/12/21 01:38:09;;;;;;;23.33;13.40;;;;;;;-0.26;52.23;95845.81;5089423;28;20035;-76
2022/12/21 01:40:34;;;;;;;19.45;12.77;;;;;;;-0.26;52.46;95851.22;5090104;28;20035;-77
2022/12/21 01:43:00;;;;;;;26.42;13.45;;;;;;;-0.29;52.77;95847.31;5088856;28;20565;-76
2022/12/21 01:45:29;;;;;;;20.85;12.40;;;;;;;-0.29;52.64;95836.50;5107973;28;20096;-76
2022/12/21 01:48:03;;;;;;;25.27;12.48;;;;;;;-0.28;52.59;95838.06;5088554;28;20023;-76
2022/12/21 01:50:31;;;;;;;25.23;12.02;;;;;;;-0.28;52.75;95835.38;5106373;28;20076;-76
2022/12/21 01:52:59;;;;;;;25.17;12.45;;;;;;;-0.32;52.85;95829.06;5107536;28;20015;-75
2022/12/21 01:55:24;;;;;;;21.30;12.95;;;;;;;-0.33;52.85;95822.09;5072251;28;20035;-76
2022/12/21 01:57:53;;;;;;;19.65;11.55;;;;;;;-0.34;53.12;95817.84;5106133;28;20035;-76
2022/12/21 02:00:18;;;;;;;21.00;12.05;;;;;;;-0.31;52.62;95822.53;5105355;28;20020;-77
2022/12/21 02:02:49;;;;;;;20.60;11.38;;;;;;;-0.35;52.93;95820.88;5088583;28;20088;-76
2022/12/21 02:05:27;;;;;;;23.15;11.68;;;;;;;-0.36;52.95;95820.09;5088585;28;20042;-75
2022/12/21 02:07:53;;;;;;;20.75;11.68;;;;;;;-0.39;52.87;95820.78;5089956;28;20031;-76
2022/12/21 02:10:19;;;;;;;21.77;11.80;;;;;;;-0.41;53.37;95817.63;5088973;28;20039;-75
2022/12/21 02:12:45;;;;;;;21.38;11.43;;;;;;;-0.39;52.95;95809.19;5105459;28;20034;-77
2022/12/21 02:15:10;;;;;;;22.92;11.13;;;;;;;-0.41;53.03;95809.53;5089079;28;20023;-76
2022/12/21 02:18:11;;;;;;;24.30;13.35;;;;;;;-0.45;53.11;95814.06;5088240;28;20031;-74
2022/12/21 02:20:59;;;;;;;21.63;12.73;;;;;;;-0.48;53.05;95811.25;5106227;28;20078;-75
2022/12/21 02:24:02;;;;;;;23.10;11.88;;;;;;;-0.46;52.86;95819.78;5105978;28;20035;-75
2022/12/21 02:26:57;;;;;;;18.17;12.05;;;;;;;-0.49;53.32;95804.28;5104949;28;20032;-75
2022/12/21 02:29:34;;;;;;;;;;;;;;;-0.56;53.18;95810.28;5106075;28;20039;-75
2022/12/21 02:32:06;;;;;;;26.05;12.57;;;;;;;-0.64;53.56;95811.19;5106793;28;19919;-75
2022/12/21 02:34:50;;;;;;;24.73;13.70;;;;;;;-0.61;53.28;95815.91;5088347;28;20035;-75
2022/12/21 02:37:39;;;;;;;25.83;13.07;;;;;;;-0.66;53.45;95814.25;5107071;28;20492;-74
2022/12/21 02:40:20;;;;;;;26.67;13.68;;;;;;;-0.66;53.58;95813.47;5087502;28;20039;-74
2022/12/21 02:45:45;;;;;;;27.13;13.40;;;;;;;-0.73;53.63;95805.16;5092150;28;20164;-76
2022/12/21 02:48:23;;;;;;;25.85;13.45;;;;;;;-0.75;54.06;95810.88;5104778;28;20492;-76
2022/12/21 02:50:51;;;;;;;28.00;13.40;;;;;;;-0.82;53.86;95794.50;5106394;28;20028;-75
2022/12/21 02:53:21;;;;;;;28.02;12.43;;;;;;;-0.76;54.09;95793.13;5105179;28;20516;-75
2022/12/21 02:55:47;;;;;;;26.10;12.20;;;;;;;-0.70;54.10;95804.47;5088208;28;20578;-76
2022/12/21 02:58:15;;;;;;;21.33;12.57;;;;;;;-0.74;54.08;95790.88;5105620;28;20476;-76
2022/12/21 03:01:05;;;;;;;19.58;12.18;;;;;;;-0.71;54.22;95797.50;5087420;28;20369;-75
2022/12/21 03:03:48;;;;;;;23.98;12.90;;;;;;;-0.66;54.29;95797.25;5087486;28;20200;-76
2022/12/21 03:06:14;;;;;;;23.35;12.93;;;;;;;-0.68;54.12;95786.03;5106261;28;20493;-75
2022/12/21 03:08:45;;;;;;;24.15;13.25;;;;;;;-0.69;54.42;95787.13;5107770;28;20070;-75
2022/12/21 03:11:11;;;;;;;29.95;14.40;;;;;;;-0.73;54.43;95788.97;5105832;28;20020;-75
2022/12/21 03:13:54;;;;;;;27.67;13.32;;;;;;;-0.71;53.79;95792.88;5087892;28;20023;-76
2022/12/21 03:16:33;;;;;;;28.30;14.32;;;;;;;-0.72;53.98;95777.81;5089535;28;20027;-77
2022/12/21 03:18:58;;;;;;;23.48;12.90;;;;;;;-0.72;53.82;95783.22;5087855;28;20032;-75
2022/12/21 03:21:39;;;;;;;32.75;14.98;;;;;;;-0.71;53.94;95781.28;5104846;28;20461;-75
2022/12/21 03:24:16;;;;;;;22.77;13.52;;;;;;;-0.71;53.67;95776.69;5089434;28;20106;-76
2022/12/21 03:26:41;;;;;;;24.30;13.50;;;;;;;-0.71;53.79;95767.78;5120847;28;20015;-76
2022/12/21 03:29:06;;;;;;;27.45;14.35;;;;;;;-0.69;53.71;95768.22;5120123;28;20496;-76
2022/12/21 03:31:38;;;;;;;27.42;14.88;;;;;;;-0.69;53.54;95757.44;5088430;28;20498;-76
2022/12/21 03:34:07;;;;;;;25.15;14.35;;;;;;;-0.70;53.71;95758.56;5088180;28;20032;-76
2022/12/21 03:36:52;;;;;;;28.42;14.80;;;;;;;-0.71;53.56;95759.69;5089282;28;20062;-76
2022/12/21 03:39:19;;;;;;;23.25;13.23;;;;;;;-0.69;53.63;95752.03;5109643;28;20028;-75
2022/12/21 03:42:00;;;;;;;28.42;14.88;;;;;;;-0.71;53.77;95749.69;5091755;28;20027;-76
2022/12/21 03:44:30;;;;;;;25.70;15.32;;;;;;;-0.74;53.40;95752.31;5092730;28;20470;-76
2022/12/21 03:46:57;;;;;;;28.15;15.38;;;;;;;-0.77;53.72;95752.97;5091877;28;20065;-76
2022/12/21 03:49:29;;;;;;;26.92;15.63;;;;;;;-0.79;53.58;95749.84;5109427;28;20119;-76
2022/12/21 03:51:56;;;;;;;26.75;14.98;;;;;;;-0.78;53.77;95743.31;5091411;28;20024;-76
2022/12/21 03:54:44;;;;;;;31.75;16.02;;;;;;;-0.76;53.98;95747.22;5092242;28;20383;-75
2022/12/21 03:57:10;;;;;;;31.33;15.95;;;;;;;-0.75;53.52;95731.81;5108193;28;20034;-75
2022/12/21 03:59:40;;;;;;;25.92;15.88;;;;;;;-0.75;53.90;95734.50;5091540;28;20024;-75
2022/12/21 04:02:47;;;;;;;34.15;16.25;;;;;;;-0.76;53.82;95739.13;5090309;28;20039;-75
2022/12/21 04:05:17;;;;;;;27.00;15.45;;;;;;;-0.78;53.46;95736.00;5079050;28;20048;-76
2022/12/21 04:07:43;;;;;;;28.90;15.15;;;;;;;-0.87;53.72;95727.25;5091937;28;20035;-75
2022/12/21 04:10:11;;;;;;;29.13;15.18;;;;;;;-0.75;53.64;95737.19;5073330;28;20023;-76
2022/12/21 04:12:37;;;;;;;28.25;16.55;;;;;;;-0.77;53.75;95732.16;5091309;28;20102;-75
2022/12/21 04:15:05;;;;;;;29.52;16.40;;;;;;;-0.76;54.00;95743.75;5090344;28;20114;-75
2022/12/21 04:17:31;;;;;;;28.73;16.05;;;;;;;-0.76;54.19;95736.41;5107840;28;20478;-76
2022/12/21 04:19:59;;;;;;;39.95;18.30;;;;;;;-0.76;53.88;95724.84;5107756;28;20031;-76
2022/12/21 04:28:09;;;;;;;;;;;;;;;-0.73;54.33;95718.75;5107889;28;20042;-75
2022/12/21 04:30:41;;;;;;;58.10;25.20;;;;;;;-0.79;54.97;95714.75;5107837;28;20010;-76
2022/12/21 04:33:08;;;;;;;51.28;25.35;;;;;;;-0.85;54.97;95709.59;5090421;28;20035;-75
2022/12/21 04:35:34;;;;;;;48.05;26.40;;;;;;;-0.80;54.88;95716.66;5108529;28;20047;-76
2022/12/21 04:37:59;;;;;;;47.92;24.00;;;;;;;-0.82;55.16;95716.19;5107290;28;20059;-76
2022/12/21 04:40:25;;;;;;;44.55;23.27;;;;;;;-0.79;54.72;95706.63;5089764;28;20031;-75
2022/12/21 04:42:50;;;;;;;44.05;22.25;;;;;;;-0.83;54.78;95701.13;5090316;28;20385;-76
2022/12/21 04:45:16;;;;;;;40.33;22.42;;;;;;;-0.76;54.56;95704.03;5108672;28;20534;-75
2022/12/21 04:47:41;;;;;;;39.17;20.58;;;;;;;-0.75;54.12;95708.28;5106461;28;20051;-75
2022/12/21 04:50:07;;;;;;;37.78;21.33;;;;;;;-0.79;53.98;95710.13;5108110;28;20104;-76
2022/12/21 04:52:33;;;;;;;39.60;20.63;;;;;;;-0.79;54.15;95720.16;5090054;28;20406;-75
2022/12/21 04:54:58;;;;;;;41.38;21.10;;;;;;;-0.88;54.06;95702.16;5107181;28;20016;-75
2022/12/21 04:57:23;;;;;;;36.97;20.20;;;;;;;-0.85;54.08;95706.88;5106615;28;20401;-76
2022/12/21 04:59:49;;;;;;;38.53;21.65;;;;;;;-0.86;54.67;95715.31;5089915;28;20476;-76
2022/12/21 05:02:14;;;;;;;44.20;23.77;;;;;;;-0.86;54.27;95709.91;5089450;28;20024;-76
2022/12/21 05:04:40;;;;;;;43.38;25.02;;;;;;;-0.82;55.00;95714.28;5090156;28;20031;-76
2022/12/21 05:07:06;;;;;;;44.42;24.45;;;;;;;-0.85;54.69;95716.91;5107994;28;20036;-75
2022/12/21 05:09:31;;;;;;;42.10;23.48;;;;;;;-0.94;54.56;95700.06;5106873;28;20022;-74
2022/12/21 05:11:57;;;;;;;41.90;21.98;;;;;;;-0.88;54.66;95709.47;5108129;27;20394;-76
2022/12/21 05:14:22;;;;;;;44.17;22.23;;;;;;;-0.85;54.31;95711.50;5089414;28;20411;-75
2022/12/21 05:16:48;;;;;;;32.00;20.05;;;;;;;-0.87;54.48;95702.94;5106775;28;20455;-76
2022/12/21 05:19:14;;;;;;;40.45;23.58;;;;;;;-0.90;54.44;95706.34;5089242;28;20530;-76
2022/12/21 05:21:39;;;;;;;39.00;22.15;;;;;;;-0.88;54.73;95704.88;5089629;28;20024;-76
2022/12/21 05:24:05;;;;;;;45.05;21.17;;;;;;;-0.88;54.73;95704.09;5105878;28;20019;-76
2022/12/21 05:26:30;;;;;;;41.20;20.35;;;;;;;-0.89;54.91;95706.00;5106612;28;20026;-77
2022/12/21 05:28:56;;;;;;;33.67;20.80;;;;;;;-0.90;54.63;95703.66;5106501;28;20020;-76
2022/12/21 05:31:21;;;;;;;48.85;21.25;;;;;;;-0.93;54.85;95710.50;5107504;27;20448;-77
2022/12/21 05:33:47;;;;;;;36.00;20.20;;;;;;;-0.92;54.39;95704.00;5106554;28;20023;-75
2022/12/21 05:36:14;;;;;;;39.13;21.27;;;;;;;-0.90;54.73;95703.66;5105657;28;20020;-77
2022/12/21 05:38:40;;;;;;;33.75;19.52;;;;;;;-0.89;54.37;95703.28;5089329;28;20039;-75
2022/12/21 05:41:05;;;;;;;38.97;19.73;;;;;;;-0.90;54.51;95700.94;5105416;28;20027;-76
2022/12/21 05:43:31;;;;;;;36.20;19.55;;;;;;;-0.92;54.65;95695.09;5106213;28;20023;-75
2022/12/21 05:46:07;;;;;;;32.97;18.88;;;;;;;-0.89;54.43;95695.19;5071969;28;20026;-76
2022/12/21 05:48:33;;;;;;;31.80;18.50;;;;;;;-0.91;54.69;95694.78;5089357;28;20076;-74
2022/12/21 05:50:58;;;;;;;33.58;19.13;;;;;;;-0.91;54.44;95700.16;5089573;28;20028;-75
2022/12/21 05:53:24;;;;;;;37.55;20.55;;;;;;;-0.98;54.70;95707.25;5090064;28;20019;-76
2022/12/21 05:55:51;;;;;;;34.08;19.10;;;;;;;-1.01;54.86;95700.66;5104958;28;20031;-75
2022/12/21 05:58:17;;;;;;;36.95;20.73;;;;;;;-1.03;54.81;95699.41;5107915;28;20015;-76
2022/12/21 06:00:43;;;;;;;36.47;18.67;;;;;;;-1.05;55.07;95697.06;5105553;28;20142;-76
2022/12/21 06:03:08;;;;;;;31.00;18.25;;;;;;;-1.05;55.25;95699.75;5105586;28;20054;-77
2022/12/21 06:05:34;;;;;;;27.15;16.73;;;;;;;-1.04;55.14;95698.63;5107167;28;20055;-76
2022/12/21 06:08:00;;;;;;;36.15;17.73;;;;;;;-1.00;55.22;95693.34;5089009;28;20038;-75
2022/12/21 06:10:26;;;;;;;30.88;17.67;;;;;;;-1.03;55.19;95689.44;5105195;28;20123;-76
2022/12/21 06:12:51;;;;;;;36.45;17.65;;;;;;;-1.01;55.14;95686.38;5088666;28;20098;-76
2022/12/21 06:15:17;;;;;;;36.88;19.90;;;;;;;-0.96;54.90;95689.63;5106783;28;20051;-74
2022/12/21 06:17:42;;;;;;;37.17;19.30;;;;;;;-0.95;55.29;95691.19;5106942;28;20023;-75
2022/12/21 06:20:08;;;;;;;35.83;20.33;;;;;;;-0.92;55.34;95692.41;5106117;28;20043;-74
2022/12/21 06:22:34;;;;;;;33.08;21.10;;;;;;;-0.90;55.10;95698.25;5107201;28;20023;-76
2022/12/21 06:25:00;;;;;;;37.88;21.83;;;;;;;-0.92;54.77;95690.50;5106073;28;20028;-76
2022/12/21 06:27:25;;;;;;;38.78;22.38;;;;;;;-0.86;54.70;95701.81;5106643;28;20036;-76
2022/12/21 06:29:51;;;;;;;36.25;23.70;;;;;;;-0.83;54.43;95696.50;5088418;28;20028;-76
2022/12/21 06:32:16;;;;;;;39.00;22.15;;;;;;;-0.80;54.62;95692.34;5106248;28;20031;-74
2022/12/21 06:34:41;;;;;;;46.80;22.98;;;;;;;-0.81;54.74;95682.66;5105228;28;20089;-75
2022/12/21 06:37:07;;;;;;;41.28;23.13;;;;;;;-0.70;54.57;95691.84;5106014;28;20027;-76
2022/12/21 06:39:33;;;;;;;36.10;21.67;;;;;;;-0.62;54.61;95700.94;5107113;28;20465;-76
2022/12/21 06:41:58;;;;;;;39.72;22.27;;;;;;;-0.63;54.67;95696.63;5104779;28;20038;-77
2022/12/21 06:44:23;;;;;;;43.83;22.15;;;;;;;-0.49;54.36;95702.41;5071759;28;20031;-76
2022/12/21 06:46:49;;;;;;;41.35;21.75;;;;;;;-0.44;54.37;95699.47;5106645;28;20015;-77
2022/12/21 06:49:14;;;;;;;42.88;24.25;;;;;;;-0.38;54.33;95700.78;5104711;28;20024;-76
2022/12/21 06:51:40;;;;;;;41.47;23.35;;;;;;;-0.36;54.29;95695.78;5105259;28;20555;-76
2022/12/21 06:54:06;;;;;;;42.83;24.67;;;;;;;-0.27;54.18;95698.34;5088467;28;20077;-76
2022/12/21 06:56:31;;;;;;;42.28;25.33;;;;;;;-0.27;54.23;95696.41;5106759;28;20038;-76
2022/12/21 06:58:57;;;;;;;59.42;33.10;;;;;;;-0.08;55.70;95706.53;5104523;28;20201;-77
2022/12/21 07:01:33;;;;;;;81.60;42.15;;;;;;;0.04;55.56;95708.34;5088059;28;20027;-78
2022/12/21 07:03:59;;;;;;;93.82;51.17;;;;;;;0.13;54.93;95711.66;5104958;28;20028;-76
2022/12/21 07:06:25;;;;;;;95.88;51.05;;;;;;;0.24;54.28;95715.41;5105246;28;20517;-76
2022/12/21 07:08:51;;;;;;;96.63;48.97;;;;;;;0.30;53.85;95725.97;5106031;28;20019;-75
2022/12/21 07:11:18;;;;;;;97.30;48.88;;;;;;;0.32;53.57;95716.34;5104495;28;20410;-76
2022/12/21 07:13:44;;;;;;;94.60;53.10;;;;;;;0.35;53.54;95721.06;5092286;28;20023;-74
2022/12/21 07:16:10;;;;;;;108.47;54.78;;;;;;;0.46;53.18;95729.38;5091366;28;20020;-75
2022/12/21 07:18:37;;;;;;;112.25;54.38;;;;;;;0.49;53.26;95724.06;5109125;28;20036;-75
2022/12/21 07:21:05;;;;;;;113.70;54.28;;;;;;;0.53;53.12;95719.53;5091483;28;20032;-76
2022/12/21 07:23:30;;;;;;;96.43;51.55;;;;;;;0.59;52.70;95720.03;5092177;28;20120;-76
2022/12/21 07:25:56;;;;;;;93.35;50.05;;;;;;;0.69;52.63;95722.19;5091772;28;20493;-76
2022/12/21 07:28:22;;;;;;;99.25;49.05;;;;;;;0.79;52.12;95718.13;5108193;28;20081;-75
2022/12/21 07:30:48;;;;;;;87.00;46.08;;;;;;;0.92;51.87;95719.59;5108679;28;20096;-75
2022/12/21 07:33:16;;;;;;;84.03;46.28;;;;;;;1.04;51.49;95718.66;5109570;28;20049;-77
2022/12/21 07:35:42;;;;;;;90.60;47.58;;;;;;;1.18;51.12;95710.81;5108576;28;20020;-75
2022/12/21 07:38:07;;;;;;;94.82;47.38;;;;;;;1.35;50.76;95703.38;5091144;28;20443;-74
2022/12/21 07:40:33;;;;;;;90.28;47.38;;;;;;;1.42;50.74;95703.50;5109769;28;20516;-75
2022/12/21 07:42:58;;;;;;;88.90;46.15;;;;;;;1.57;49.90;95699.94;5109522;28;20020;-75
2022/12/21 07:45:23;;;;;;;82.72;43.97;;;;;;;1.73;50.11;95699.81;5108119;28;20135;-75
2022/12/21 07:47:49;;;;;;;87.90;43.33;;;;;;;1.97;49.58;95706.81;5108450;28;20024;-74
2022/12/21 07:50:16;;;;;;;84.70;43.53;;;;;;;2.18;48.82;95693.59;5108275;28;20023;-75
2022/12/21 07:52:41;;;;;;;77.85;41.67;;;;;;;2.43;48.39;95712.94;5108732;28;20027;-77
2022/12/21 07:55:07;;;;;;;89.95;44.22;;;;;;;2.57;48.09;95712.38;5090759;28;20400;-75
2022/12/21 07:57:32;;;;;;;90.55;45.92;;;;;;;2.89;47.34;95708.16;5091512;28;20027;-76
2022/12/21 07:59:58;;;;;;;91.25;47.78;;;;;;;3.53;46.39;95708.13;5107854;28;20023;-76
2022/12/21 08:02:23;;;;;;;87.00;46.47;;;;;;;5.20;43.04;95708.56;5109361;28;20039;-76
2022/12/21 08:04:49;;;;;;;77.53;43.10;;;;;;;7.61;38.69;95713.59;5109752;27;20092;-76
2022/12/21 08:07:14;;;;;;;73.70;43.80;;;;;;;9.34;35.11;95720.81;5090482;28;20016;-76
2022/12/21 08:09:40;;;;;;;77.15;41.10;;;;;;;10.93;32.01;95709.91;5108409;28;20034;-77
2022/12/21 08:12:05;;;;;;;70.00;42.15;;;;;;;12.36;29.96;95710.53;5107219;28;20046;-76
2022/12/21 08:14:31;;;;;;;71.30;44.58;;;;;;;13.80;27.90;95703.63;5108396;28;20027;-77
2022/12/21 08:16:56;;;;;;;66.53;44.65;;;;;;;15.08;26.05;95698.81;5103136;28;20390;-75
2022/12/21 08:19:22;;;;;;;62.28;41.45;;;;;;;16.51;24.14;95688.78;5112927;28;20039;-78
2022/12/21 08:21:47;;;;;;;65.78;43.03;;;;;;;17.75;22.39;95687.56;5107992;28;20024;-77
2022/12/21 08:24:13;;;;;;;60.53;41.03;;;;;;;18.51;21.52;95691.97;5090090;28;20027;-75
2022/12/21 08:26:38;;;;;;;56.33;41.28;;;;;;;19.22;21.02;95689.75;5109116;28;20031;-77
2022/12/21 08:29:05;;;;;;;57.08;39.35;;;;;;;20.08;20.12;95686.06;5107251;28;20019;-77
2022/12/21 08:31:31;;;;;;;53.03;38.08;;;;;;;20.62;19.35;95679.09;5091004;28;20053;-78
2022/12/21 08:33:56;;;;;;;50.00;37.45;;;;;;;21.57;18.21;95681.63;5106942;28;20031;-76
2022/12/21 08:36:22;;;;;;;51.45;38.17;;;;;;;22.02;17.88;95663.22;5073636;28;20015;-77
2022/12/21 08:38:48;;;;;;;50.80;36.65;;;;;;;22.58;17.56;95660.16;5073746;28;20585;-76
2022/12/21 08:41:14;;;;;;;47.72;36.10;;;;;;;22.64;16.90;95669.34;5073293;28;20047;-76
2022/12/21 08:43:40;;;;;;;53.63;38.42;;;;;;;22.95;16.73;95666.53;5107668;28;20019;-77
2022/12/21 08:46:06;;;;;;;48.03;37.60;;;;;;;23.75;16.08;95671.22;5107544;28;20030;-77
2022/12/21 08:48:32;;;;;;;50.67;39.17;;;;;;;24.36;15.46;95659.31;5075174;28;20064;-77
2022/12/21 08:50:57;;;;;;;45.75;37.88;;;;;;;25.02;15.04;95654.88;5090137;28;20099;-76
2022/12/21 08:53:24;;;;;;;56.60;38.55;;;;;;;25.56;14.42;95645.22;5090761;28;20035;-76
2022/12/21 08:55:49;;;;;;;52.83;37.97;;;;;;;26.15;14.03;95652.28;5107413;28;20023;-76
2022/12/21 08:58:15;;;;;;;47.70;37.22;;;;;;;26.70;13.65;95650.34;5107170;28;20410;-75
2022/12/21 09:00:42;;;;;;;47.22;37.95;;;;;;;27.13;13.19;95641.22;5107441;28;20468;-77
2022/12/21 09:03:08;;;;;;;44.70;36.15;;;;;;;27.49;13.10;95647.44;5089922;28;20023;-77
2022/12/21 09:05:33;;;;;;;46.28;36.90;;;;;;;28.02;12.64;95653.41;5106941;28;20043;-77
2022/12/21 09:07:59;;;;;;;47.80;37.42;;;;;;;28.41;12.16;95647.19;5106325;28;20474;-77
2022/12/21 09:10:25;;;;;;;44.70;37.15;;;;;;;28.82;11.86;95641.06;5108704;28;20023;-80
2022/12/21 09:12:50;;;;;;;47.47;35.25;;;;;;;28.98;11.63;95635.69;5108156;28;20382;-77
2022/12/21 09:15:16;;;;;;;44.08;38.22;;;;;;;28.86;11.32;95632.28;5089953;28;20517;-82
2022/12/21 09:17:42;;;;;;;48.90;37.92;;;;;;;28.94;11.47;95632.41;5106589;28;20042;-82
2022/12/21 09:20:07;;;;;;;47.38;39.35;;;;;;;29.28;11.47;95615.53;5089384;28;20406;-77
2022/12/21 09:22:33;;;;;;;45.28;39.17;;;;;;;29.66;11.55;95613.22;5089384;28;20027;-77
2022/12/21 09:24:58;;;;;;;52.28;40.22;;;;;;;30.12;11.09;95606.00;5105857;28;20089;-76
2022/12/21 09:27:24;;;;;;;50.50;41.58;;;;;;;30.45;10.83;95597.97;5106517;28;20069;-78
2022/12/21 09:29:49;;;;;;;48.97;40.13;;;;;;;30.80;10.32;95604.34;5105836;28;20028;-78
2022/12/21 09:32:15;;;;;;;49.95;40.25;;;;;;;31.17;10.21;95589.63;5107126;28;20019;-76
2022/12/21 09:34:41;;;;;;;50.05;40.15;;;;;;;31.19;9.83;95595.50;5104932;28;20024;-78
2022/12/21 09:37:06;;;;;;;51.88;41.22;;;;;;;31.44;9.82;95586.59;5107158;28;20034;-77
2022/12/21 09:39:31;;;;;;;51.28;40.00;;;;;;;31.67;10.11;95587.44;5106127;28;20024;-76
2022/12/21 09:42:15;;;;;;;46.75;40.42;;;;;;;31.99;9.75;95581.28;5106082;28;20530;-76
2022/12/21 09:44:53;;;;;;;48.88;38.60;;;;;;;32.18;9.78;95577.34;5108657;28;20599;-76
2022/12/21 09:47:21;;;;;;;45.40;40.00;;;;;;;32.49;9.43;95575.31;5106894;28;20114;-78
2022/12/21 09:49:58;;;;;;;46.85;38.92;;;;;;;32.92;9.21;95565.03;5089615;28;20067;-77
2022/12/21 09:52:27;;;;;;;45.63;38.20;;;;;;;33.36;9.24;95576.13;5089462;28;20027;-77
2022/12/21 09:55:25;;;;;;;48.33;39.92;;;;;;;33.64;8.50;95569.41;5089181;28;20034;-77
2022/12/21 09:57:52;;;;;;;42.90;37.40;;;;;;;34.12;8.41;95558.69;5102488;28;20043;-76
2022/12/21 10:00:21;;;;;;;49.72;38.45;;;;;;;34.20;8.52;95561.50;5088117;28;20023;-76
2022/12/21 10:03:05;;;;;;;45.00;37.75;;;;;;;34.45;8.43;95552.97;5105659;28;20081;-76
2022/12/21 10:05:44;;;;;;;42.15;36.45;;;;;;;34.63;8.37;95548.06;5106823;28;20445;-77
2022/12/21 10:08:32;;;;;;;39.92;34.75;;;;;;;35.03;7.77;95539.31;5105309;28;20060;-78
2022/12/21 10:11:25;;;;;;;42.70;33.67;;;;;;;35.21;8.05;95532.25;5107166;28;20034;-78
2022/12/21 10:14:14;;;;;;;43.30;35.85;;;;;;;35.17;7.54;95528.34;5089831;28;20024;-77
2022/12/21 10:16:54;;;;;;;40.67;34.63;;;;;;;35.41;7.69;95518.91;5064430;28;20070;-76
2022/12/21 10:19:28;;;;;;;41.60;35.92;;;;;;;35.79;7.77;95512.72;5088965;28;20521;-77
2022/12/21 10:22:09;;;;;;;42.80;37.05;;;;;;;35.74;7.57;95505.16;5088016;28;20027;-77
2022/12/21 10:24:43;;;;;;;42.20;36.60;;;;;;;35.63;7.57;95509.28;5105507;28;20024;-76
2022/12/21 10:27:33;;;;;;;38.65;34.47;;;;;;;36.10;7.42;95497.97;5088859;28;20024;-78
2022/12/21 10:29:59;;;;;;;40.30;35.33;;;;;;;36.40;7.07;95494.63;5071688;28;20546;-78
2022/12/21 10:32:34;;;;;;;39.28;34.40;;;;;;;36.65;7.22;95487.94;5105982;28;20497;-77
2022/12/21 10:35:14;;;;;;;40.03;34.67;;;;;;;36.81;7.31;95483.41;5095324;28;20028;-77
2022/12/21 10:37:39;;;;;;;37.45;33.10;;;;;;;37.00;6.68;95488.44;5091347;28;20038;-76
2022/12/21 10:40:05;;;;;;;38.35;32.97;;;;;;;37.21;6.69;95485.72;5106852;28;20255;-76
2022/12/21 10:42:39;;;;;;;42.67;35.05;;;;;;;37.24;6.63;95483.00;5106550;28;20045;-78
2022/12/21 10:45:05;;;;;;;39.97;33.45;;;;;;;37.50;6.56;95487.81;5088439;28;20019;-77
2022/12/21 10:47:31;;;;;;;38.75;33.08;;;;;;;37.70;6.43;95477.09;5087971;28;20024;-78
2022/12/21 10:50:13;;;;;;;36.60;32.35;;;;;;;37.67;6.14;95467.56;5105497;28;20457;-77
2022/12/21 10:52:45;;;;;;;35.17;31.10;;;;;;;37.68;5.98;95469.09;5106444;28;20072;-77
2022/12/21 10:55:19;;;;;;;;;;;;;;;37.91;6.03;95462.84;5105470;28;20024;-76
2022/12/21 10:57:46;;;;;;;36.03;30.88;;;;;;;38.22;5.97;95457.13;5106918;28;20382;-77
2022/12/21 11:00:21;;;;;;;36.67;31.67;;;;;;;38.64;5.62;95461.44;5087508;28;20056;-77
2022/12/21 11:02:46;;;;;;;36.22;32.20;;;;;;;39.04;5.55;95462.69;5104970;28;20030;-77
2022/12/21 11:05:40;;;;;;;34.30;29.25;;;;;;;39.36;5.41;95454.75;5087613;28;20048;-76
2022/12/21 11:08:25;;;;;;;33.15;28.50;;;;;;;39.30;5.52;95450.09;5104887;28;20032;-77
2022/12/21 11:10:52;;;;;;;37.40;29.98;;;;;;;39.26;5.70;95446.94;5105325;28;20028;-77
2022/12/21 11:13:19;;;;;;;33.70;28.73;;;;;;;39.45;5.30;95448.13;5104504;28;20440;-76
2022/12/21 11:16:12;;;;;;;39.35;28.35;;;;;;;39.80;5.37;95446.13;5105232;28;20034;-77
2022/12/21 11:18:47;;;;;;;31.00;26.63;;;;;;;39.99;5.05;95430.75;5103990;27;20063;-77
2022/12/21 11:21:21;;;;;;;34.67;27.08;;;;;;;40.06;5.26;95432.66;5088338;28;20055;-77
2022/12/21 11:23:58;;;;;;;33.90;26.45;;;;;;;40.01;5.09;95427.22;5105145;28;20055;-76
2022/12/21 11:26:28;;;;;;;34.60;26.17;;;;;;;39.96;5.06;95425.47;5106157;28;20035;-77
2022/12/21 11:29:03;;;;;;;30.17;25.48;;;;;;;40.04;5.17;95426.00;5105126;28;20482;-76
2022/12/21 11:31:28;;;;;;;31.30;24.85;;;;;;;39.75;5.38;95423.47;5104987;28;20043;-78
2022/12/21 11:33:53;;;;;;;33.45;25.75;;;;;;;39.49;5.45;95420.38;5088041;28;20023;-77
2022/12/21 11:36:19;;;;;;;33.65;24.88;;;;;;;39.36;5.47;95417.34;5107633;28;20502;-75
2022/12/21 11:38:44;;;;;;;31.70;25.88;;;;;;;39.46;5.07;95412.25;5106233;28;20041;-75